Map

Track Data

SID SEASON NUMBER BASIN SUBBASIN NAME ISO_TIME NATURE LAT LON WMO_WIND WMO_PRES WMO_AGENCY TRACK_TYPE DIST2LAND LANDFALL IFLAG USA_AGENCY USA_ATCF_ID USA_LAT USA_LON USA_RECORD USA_STATUS USA_WIND USA_PRES USA_SSHS USA_R34_NE USA_R34_SE USA_R34_SW USA_R34_NW USA_R50_NE USA_R50_SE USA_R50_SW USA_R50_NW USA_R64_NE USA_R64_SE USA_R64_SW USA_R64_NW USA_POCI USA_ROCI USA_RMW USA_EYE TOKYO_LAT TOKYO_LON TOKYO_GRADE TOKYO_WIND TOKYO_PRES TOKYO_R50_DIR TOKYO_R50_LONG TOKYO_R50_SHORT TOKYO_R30_DIR TOKYO_R30_LONG TOKYO_R30_SHORT TOKYO_LAND CMA_LAT CMA_LON CMA_CAT CMA_WIND CMA_PRES HKO_LAT HKO_LON HKO_CAT HKO_WIND HKO_PRES NEWDELHI_LAT NEWDELHI_LON NEWDELHI_GRADE NEWDELHI_WIND NEWDELHI_PRES NEWDELHI_CI NEWDELHI_DP NEWDELHI_POCI REUNION_LAT REUNION_LON REUNION_TYPE REUNION_WIND REUNION_PRES REUNION_TNUM REUNION_CI REUNION_RMW REUNION_R34_NE REUNION_R34_SE REUNION_R34_SW REUNION_R34_NW REUNION_R50_NE REUNION_R50_SE REUNION_R50_SW REUNION_R50_NW REUNION_R64_NE REUNION_R64_SE REUNION_R64_SW REUNION_R64_NW BOM_LAT BOM_LON BOM_TYPE BOM_WIND BOM_PRES BOM_TNUM BOM_CI BOM_RMW BOM_R34_NE BOM_R34_SE BOM_R34_SW BOM_R34_NW BOM_R50_NE BOM_R50_SE BOM_R50_SW BOM_R50_NW BOM_R64_NE BOM_R64_SE BOM_R64_SW BOM_R64_NW BOM_ROCI BOM_POCI BOM_EYE BOM_POS_METHOD BOM_PRES_METHOD NADI_LAT NADI_LON NADI_CAT NADI_WIND NADI_PRES WELLINGTON_LAT WELLINGTON_LON WELLINGTON_WIND WELLINGTON_PRES DS824_LAT DS824_LON DS824_STAGE DS824_WIND DS824_PRES TD9636_LAT TD9636_LON TD9636_STAGE TD9636_WIND TD9636_PRES TD9635_LAT TD9635_LON TD9635_WIND TD9635_PRES TD9635_ROCI NEUMANN_LAT NEUMANN_LON NEUMANN_CLASS NEUMANN_WIND NEUMANN_PRES MLC_LAT MLC_LON MLC_CLASS MLC_WIND MLC_PRES USA_GUST BOM_GUST BOM_GUST_PER REUNION_GUST REUNION_GUST_PER USA_SEAHGT USA_SEARAD_NE USA_SEARAD_SE USA_SEARAD_SW USA_SEARAD_NW STORM_SPEED STORM_DIR
1909267N22277 1909 53 NA CS NOT_NAMED 1909-09-24 00:00:00 TS 22.0000 -83.0000 30 hurdat_atl main 22 22 O_____________ hurdat_atl AL101909 22.0000 -83.0000 TD 30 -1 5 2
1909267N22277 1909 53 NA CS NOT_NAMED 1909-09-24 03:00:00 TS 22.2500 -83.0000 main 23 10 P_____________ AL101909 22.2500 -83.0000 TD 30 -1 5 2
1909267N22277 1909 53 NA CS NOT_NAMED 1909-09-24 06:00:00 TS 22.5000 -83.0000 30 hurdat_atl main 10 0 O_____________ hurdat_atl AL101909 22.5000 -83.0000 TD 30 -1 5 2
1909267N22277 1909 53 NA NA NOT_NAMED 1909-09-24 09:00:00 TS 22.7500 -83.0000 main 0 0 P_____________ AL101909 22.7500 -83.0000 TD 30 -1 5 2
1909267N22277 1909 53 NA NA NOT_NAMED 1909-09-24 12:00:00 TS 23.0000 -83.0000 30 hurdat_atl main 11 11 O_____________ hurdat_atl AL101909 23.0000 -83.0000 TD 30 -1 5 1
1909267N22277 1909 53 NA GM NOT_NAMED 1909-09-24 15:00:00 TS 23.2425 -83.0000 main 30 30 P_____________ AL101909 23.2425 -83.0000 TD 30 -1 5 2
1909267N22277 1909 53 NA GM NOT_NAMED 1909-09-24 18:00:00 TS 23.5000 -83.0000 30 hurdat_atl main 59 59 O_____________ hurdat_atl AL101909 23.5000 -83.0000 TD 30 -1 6 0
1909267N22277 1909 53 NA GM NOT_NAMED 1909-09-24 21:00:00 TS 23.7925 -83.0000 main 91 91 P_____________ AL101909 23.7925 -83.0000 TD 30 -1 6 1
1909267N22277 1909 53 NA GM NOT_NAMED 1909-09-25 00:00:00 TS 24.1000 -83.0000 30 hurdat_atl main 122 122 O_____________ hurdat_atl AL101909 24.1000 -83.0000 TD 30 -1 6 358
1909267N22277 1909 53 NA GM NOT_NAMED 1909-09-25 03:00:00 TS 24.4000 -83.0149 main 153 153 P_____________ AL101909 24.4000 -83.0149 TD 30 -1 6 1
1909267N22277 1909 53 NA GM NOT_NAMED 1909-09-25 06:00:00 TS 24.7000 -83.0000 30 hurdat_atl main 185 164 O_____________ hurdat_atl AL101909 24.7000 -83.0000 TD 30 -1 6 7
1909267N22277 1909 53 NA GM NOT_NAMED 1909-09-25 09:00:00 TS 25.0074 -82.9449 main 156 129 P_____________ AL101909 25.0074 -82.9449 TD 30 -1 6 17
1909267N22277 1909 53 NA GM NOT_NAMED 1909-09-25 12:00:00 TS 25.3000 -82.8000 30 hurdat_atl main 129 100 O_____________ hurdat_atl AL101909 25.3000 -82.8000 TD 30 -1 7 33
1909267N22277 1909 53 NA GM NOT_NAMED 1909-09-25 15:00:00 TS 25.5574 -82.5524 main 96 51 P_____________ AL101909 25.5574 -82.5524 TD 30 -1 7 47
1909267N22277 1909 53 NA GM NOT_NAMED 1909-09-25 18:00:00 TS 25.8000 -82.2000 30 hurdat_atl main 51 9 O_____________ hurdat_atl AL101909 25.8000 -82.2000 TD 30 -1 9 55
1909267N22277 1909 53 NA GM NOT_NAMED 1909-09-25 21:00:00 TS 26.0425 -81.7724 main 9 0 P_____________ AL101909 26.0425 -81.7724 TD 30 -1 10 58
1909267N22277 1909 53 NA NA NOT_NAMED 1909-09-26 00:00:00 TS 26.3000 -81.3000 30 hurdat_atl main 0 0 O_____________ hurdat_atl AL101909 26.3000 -81.3000 TD 30 -1 10 56
1909267N22277 1909 53 NA NA NOT_NAMED 1909-09-26 03:00:00 TS 26.5924 -80.8499 main 0 0 P_____________ AL101909 26.5924 -80.8499 TD 30 -1 10 53
1909267N22277 1909 53 NA NA NOT_NAMED 1909-09-26 06:00:00 TS 26.9000 -80.4000 30 hurdat_atl main 0 0 O_____________ hurdat_atl AL101909 26.9000 -80.4000 TD 30 -1 10 53
1909267N22277 1909 53 NA NA NOT_NAMED 1909-09-26 09:00:00 TS 27.2075 -79.9275 main 29 29 P_____________ AL101909 27.2075 -79.9275 TD 32 -1 10 53
1909267N22277 1909 53 NA NA NOT_NAMED 1909-09-26 12:00:00 TS 27.5000 -79.5000 35 hurdat_atl main 76 76 O_____________ hurdat_atl AL101909 27.5000 -79.5000 TS 35 0 9 50
1909267N22277 1909 53 NA NA NOT_NAMED 1909-09-26 15:00:00 TS 27.7648 -79.1697 main 117 117 P_____________ AL101909 27.7648 -79.1697 TS 35 0 7 47
1909267N22277 1909 53 NA NA NOT_NAMED 1909-09-26 18:00:00 TS 28.0000 -78.9000 35 hurdat_atl main 153 153 O_____________ hurdat_atl AL101909 28.0000 -78.9000 TS 35 0 6 47
1909267N22277 1909 53 NA NA NOT_NAMED 1909-09-26 21:00:00 TS 28.1924 -78.6496 main 188 186 P_____________ AL101909 28.1924 -78.6496 TS 37 0 6 48
1909267N22277 1909 53 NA NA NOT_NAMED 1909-09-27 00:00:00 TS 28.4000 -78.4000 40 hurdat_atl main 205 205 O_____________ hurdat_atl AL101909 28.4000 -78.4000 TS 40 0 7 43
1909267N22277 1909 53 NA NA NOT_NAMED 1909-09-27 03:00:00 TS 28.6924 -78.1225 main 235 235 P_____________ AL101909 28.6924 -78.1225 TS 42 0 8 41
1909267N22277 1909 53 NA NA NOT_NAMED 1909-09-27 06:00:00 TS 29.0000 -77.8000 45 hurdat_atl main 268 268 O_____________ hurdat_atl AL101909 29.0000 -77.8000 TS 45 0 8 44
1909267N22277 1909 53 NA NA NOT_NAMED 1909-09-27 09:00:00 TS 29.2488 -77.5039 main 302 302 P_____________ AL101909 29.2488 -77.5039 TS 47 0 9 54
1909267N22277 1909 53 NA NA NOT_NAMED 1909-09-27 12:00:00 TS 29.5000 -77.0000 50 hurdat_atl main 357 357 O_____________ hurdat_atl AL101909 29.5000 -77.0000 TS 50 0 13 66
1909267N22277 1909 53 NA NA NOT_NAMED 1909-09-27 15:00:00 TS 29.8005 -76.1053 main 450 450 P_____________ AL101909 29.8005 -76.1053 TS 50 0 18 71
1909267N22277 1909 53 NA NA NOT_NAMED 1909-09-27 18:00:00 TS 30.1000 -75.0000 50 hurdat_atl main 509 509 O_____________ hurdat_atl AL101909 30.1000 -75.0000 TS 50 0 20 74
1909267N22277 1909 53 NA NA NOT_NAMED 1909-09-27 21:00:00 TS 30.3569 -73.9143 main 537 537 P_____________ AL101909 30.3569 -73.9143 TS 50 0 20 75
1909267N22277 1909 53 NA NA NOT_NAMED 1909-09-28 00:00:00 TS 30.6000 -72.8000 50 hurdat_atl main 573 573 O_____________ hurdat_atl AL101909 30.6000 -72.8000 TS 50 0 20 75
1909267N22277 1909 53 NA NA NOT_NAMED 1909-09-28 03:00:00 TS 30.8571 -71.6774 main 616 616 P_____________ AL101909 30.8571 -71.6774 TS 47 0 20 75
1909267N22277 1909 53 NA NA NOT_NAMED 1909-09-28 06:00:00 TS 31.1000 -70.6000 45 hurdat_atl main 678 678 O_____________ hurdat_atl AL101909 31.1000 -70.6000 TS 45 0 18 75
1909267N22277 1909 53 NA NA NOT_NAMED 1909-09-28 09:00:00 TS 31.3139 -69.6195 main 740 740 P_____________ AL101909 31.3139 -69.6195 TS 42 0 17 76
1909267N22277 1909 53 NA NA NOT_NAMED 1909-09-28 12:00:00 TS 31.5000 -68.7000 40 hurdat_atl main 789 789 O_____________ hurdat_atl AL101909 31.5000 -68.7000 TS 40 0 16 78
1909267N22277 1909 53 NA NA NOT_NAMED 1909-09-28 15:00:00 TS 31.6498 -67.7619 main 850 850 P_____________ AL101909 31.6498 -67.7619 TS 37 0 16 79
1909267N22277 1909 53 NA NA NOT_NAMED 1909-09-28 18:00:00 TS 31.8000 -66.9000 35 hurdat_atl main 909 909 O_____________ hurdat_atl AL101909 31.8000 -66.9000 TS 35 0 14 76
1909267N22277 1909 53 NA NA NOT_NAMED 1909-09-28 21:00:00 TS 31.9879 -66.1633 main 955 955 P_____________ AL101909 31.9879 -66.1633 TS 32 -1 13 71
1909267N22277 1909 53 NA NA NOT_NAMED 1909-09-29 00:00:00 TS 32.2000 -65.5000 30 hurdat_atl main 1003 O_____________ hurdat_atl AL101909 32.2000 -65.5000 TD 30 -1 12 69

About IBTrACS Database

This database is a web-friendly format of International Best Track Archive for Climate Stewardship (IBTrACS), a global best track data archive curated by NOAA dating back to 1842.

Updated: 2021-11-26